Time;durP1;ratioP1;P1;durP2;ratioP2;P2;SDS_P1;SDS_P2;PMS_P1;PMS_P2;Temp;Humidity;BMP_temperature;BMP_pressure;BME280_temperature;BME280_humidity;BME280_pressure;Samples;Min_cycle;Max_cycle;Signal;HPM_P1;HPM_P2
2023/01/04 00:01:08;;;;;;;11.45;3.22;;;8.30;99.90;;;;;;5035078;28;20091;-65
2023/01/04 00:03:34;;;;;;;7.60;3.45;;;8.30;99.90;;;;;;5036398;28;20029;-64
2023/01/04 00:06:02;;;;;;;11.57;3.70;;;8.30;99.90;;;;;;5014107;28;20053;-63
2023/01/04 00:08:28;;;;;;;8.73;3.00;;;8.30;99.90;;;;;;5033882;28;20398;-64
2023/01/04 00:11:20;;;;;;;13.15;3.10;;;8.30;99.90;;;;;;5015347;28;20045;-64
2023/01/04 00:13:51;;;;;;;10.85;3.20;;;8.30;99.90;;;;;;5020193;28;20057;-64
2023/01/04 00:16:20;;;;;;;8.60;3.28;;;8.30;99.90;;;;;;5045231;28;20085;-64
2023/01/04 00:18:46;;;;;;;8.77;3.33;;;8.30;99.90;;;;;;5030744;28;20346;-64
2023/01/04 00:21:15;;;;;;;10.52;3.38;;;8.30;99.90;;;;;;5041381;28;20403;-66
2023/01/04 00:23:43;;;;;;;9.40;3.05;;;8.30;99.90;;;;;;5028596;28;20399;-64
2023/01/04 00:26:10;;;;;;;12.27;3.35;;;8.30;99.90;;;;;;5030413;28;20529;-64
2023/01/04 00:28:37;;;;;;;7.35;3.42;;;8.30;99.90;;;;;;5020926;28;20049;-65
2023/01/04 00:31:04;;;;;;;8.82;3.33;;;8.20;99.90;;;;;;5036265;28;20045;-64
2023/01/04 00:33:49;;;;;;;10.50;3.60;;;8.20;99.90;;;;;;5041744;28;20664;-63
2023/01/04 00:36:15;;;;;;;7.72;2.80;;;8.20;99.90;;;;;;5023023;28;20095;-63
2023/01/04 00:38:41;;;;;;;9.13;3.10;;;8.20;99.90;;;;;;5036692;28;20044;-64
2023/01/04 00:41:08;;;;;;;7.43;2.97;;;8.20;99.90;;;;;;5035582;28;20033;-64
2023/01/04 00:43:34;;;;;;;12.18;3.65;;;8.20;99.90;;;;;;5037873;28;20072;-64
2023/01/04 00:46:00;;;;;;;6.70;3.17;;;8.20;99.90;;;;;;5038240;28;20052;-63
2023/01/04 00:48:28;;;;;;;11.25;3.22;;;8.20;99.90;;;;;;5025002;28;20039;-63
2023/01/04 00:50:53;;;;;;;8.70;3.13;;;8.10;99.90;;;;;;5023147;28;20116;-63
2023/01/04 00:53:19;;;;;;;11.05;3.47;;;8.10;99.90;;;;;;5035669;28;20214;-65
2023/01/04 00:55:45;;;;;;;8.20;2.97;;;8.10;99.90;;;;;;5034483;28;20026;-64
2023/01/04 00:58:14;;;;;;;10.68;3.08;;;8.10;99.90;;;;;;5003103;28;20038;-63
2023/01/04 01:00:40;;;;;;;9.88;3.55;;;8.10;99.90;;;;;;5043178;28;20372;-64
2023/01/04 01:03:06;;;;;;;9.63;3.45;;;8.10;99.90;;;;;;5037776;28;20029;-64
2023/01/04 01:05:34;;;;;;;9.50;3.30;;;8.30;99.90;;;;;;5031210;28;20437;-63
2023/01/04 01:08:23;;;;;;;9.05;3.65;;;8.20;99.90;;;;;;5026997;28;20037;-65
2023/01/04 01:10:45;;;;;;;10.90;3.90;;;8.20;99.90;;;;;;5019673;28;20107;-65
2023/01/04 01:13:11;;;;;;;11.02;3.28;;;8.10;99.90;;;;;;5049151;28;20036;-64
2023/01/04 01:15:36;;;;;;;7.07;2.95;;;8.10;99.90;;;;;;5029793;28;20049;-63
2023/01/04 01:18:02;;;;;;;8.13;2.83;;;8.10;99.90;;;;;;5025420;28;20049;-64
2023/01/04 01:20:28;;;;;;;9.55;3.70;;;8.10;99.90;;;;;;5029387;28;20044;-65
2023/01/04 01:22:53;;;;;;;8.88;3.53;;;8.10;99.90;;;;;;5049125;28;20506;-64
2023/01/04 01:25:19;;;;;;;9.68;3.17;;;8.10;99.90;;;;;;5041166;28;20108;-64
2023/01/04 01:27:44;;;;;;;8.25;3.10;;;8.10;99.90;;;;;;5048634;28;20025;-65
2023/01/04 01:30:10;;;;;;;7.50;3.00;;;8.10;99.90;;;;;;5035424;28;20029;-66
2023/01/04 01:32:36;;;;;;;7.60;3.00;;;8.10;99.90;;;;;;5030298;28;20047;-65
2023/01/04 01:35:01;;;;;;;11.88;3.47;;;8.20;99.90;;;;;;5030693;28;20123;-64
2023/01/04 01:37:27;;;;;;;8.05;3.00;;;8.10;99.90;;;;;;5036796;28;20033;-65
2023/01/04 01:39:53;;;;;;;6.65;3.10;;;8.10;99.90;;;;;;5039562;28;20068;-65
2023/01/04 01:42:20;;;;;;;10.55;3.22;;;8.10;99.90;;;;;;5050816;28;20039;-67
2023/01/04 01:44:53;;;;;;;9.50;3.88;;;8.20;99.90;;;;;;5030597;28;20037;-64
2023/01/04 01:47:26;;;;;;;8.00;3.17;;;8.20;99.90;;;;;;5045064;28;20029;-65
2023/01/04 01:49:53;;;;;;;8.57;3.47;;;8.20;99.90;;;;;;5040246;28;20041;-64
2023/01/04 01:52:34;;;;;;;9.40;2.80;;;8.20;99.90;;;;;;5026046;28;20091;-65
2023/01/04 01:55:03;;;;;;;6.47;2.80;;;8.20;99.90;;;;;;5033274;28;20041;-64
2023/01/04 01:57:32;;;;;;;7.05;3.38;;;8.20;99.90;;;;;;5045467;28;20457;-64
2023/01/04 02:00:03;;;;;;;10.90;3.40;;;8.20;99.90;;;;;;5032801;28;20041;-64
2023/01/04 02:02:28;;;;;;;5.45;2.80;;;8.20;99.90;;;;;;5040464;28;20033;-64
2023/01/04 02:04:55;;;;;;;9.18;3.08;;;8.20;99.90;;;;;;5040282;28;20036;-64
2023/01/04 02:07:25;;;;;;;4.57;2.63;;;8.20;99.90;;;;;;5018385;28;20081;-66
2023/01/04 02:09:50;;;;;;;7.55;2.85;;;8.20;99.90;;;;;;5049081;28;20111;-64
2023/01/04 02:12:16;;;;;;;5.93;2.97;;;8.20;99.90;;;;;;5044558;28;20568;-64
2023/01/04 02:14:44;;;;;;;5.55;2.88;;;8.30;99.90;;;;;;5020100;28;20381;-65
2023/01/04 02:17:31;;;;;;;6.75;2.60;;;8.20;99.90;;;;;;5043933;28;20091;-65
2023/01/04 02:20:00;;;;;;;6.20;2.65;;;8.30;99.90;;;;;;5043198;28;20041;-64
2023/01/04 02:22:46;;;;;;;7.72;2.60;;;8.30;99.90;;;;;;5050796;28;20033;-67
2023/01/04 02:25:33;;;;;;;5.78;2.70;;;8.40;99.90;;;;;;5031412;28;20049;-65
2023/01/04 02:28:10;;;;;;;5.93;2.60;;;8.40;99.90;;;;;;5031846;28;20049;-66
2023/01/04 02:31:13;;;;;;;6.13;2.80;;;8.30;99.90;;;;;;5047274;28;20083;-67
2023/01/04 02:33:57;;;;;;;;;;;8.40;99.90;;;;;;5040873;28;20037;-65
2023/01/04 02:36:36;;;;;;;7.55;2.65;;;8.40;99.90;;;;;;5020492;28;19939;-64
2023/01/04 02:39:12;;;;;;;6.57;2.17;;;8.40;99.90;;;;;;5034405;28;20458;-69
2023/01/04 02:41:49;;;;;;;4.75;2.17;;;8.50;99.90;;;;;;5043020;28;20124;-64
2023/01/04 02:50:29;;;;;;;4.70;2.10;;;8.50;99.90;;;;;;5041662;28;20041;-65
2023/01/04 02:50:31;;;;;;;5.75;2.10;;;8.60;99.90;;;;;;5022835;28;20053;-65
2023/01/04 02:53:04;;;;;;;3.25;1.85;;;8.60;99.90;;;;;;5031143;28;20126;-65
2023/01/04 02:56:08;;;;;;;3.75;2.00;;;8.60;99.90;;;;;;5040792;28;20172;-67
2023/01/04 02:58:55;;;;;;;4.65;1.77;;;8.70;99.90;;;;;;5021367;28;20057;-65
2023/01/04 03:07:32;;;;;;;2.33;1.58;;;8.80;99.90;;;;;;5024813;28;20045;-67
2023/01/04 03:10:38;;;;;;;2.83;1.70;;;8.90;99.90;;;;;;5045656;28;20122;-64
2023/01/04 03:13:26;;;;;;;3.65;1.90;;;9.00;99.90;;;;;;5010004;28;20114;-65
2023/01/04 03:16:05;;;;;;;3.92;1.80;;;9.00;99.90;;;;;;5025622;28;20040;-65
2023/01/04 03:18:36;;;;;;;3.90;1.77;;;9.00;99.90;;;;;;5049498;28;20422;-64
2023/01/04 03:21:03;;;;;;;3.25;2.10;;;9.10;99.90;;;;;;5029723;28;20045;-65
2023/01/04 03:35:22;;;;;;;4.20;2.20;;;9.30;99.90;;;;;;5033668;28;20049;-65
2023/01/04 03:49:56;;;;;;;3.58;2.00;;;9.40;99.90;;;;;;5024338;28;20488;-64
2023/01/04 03:52:27;;;;;;;3.00;2.17;;;9.40;99.90;;;;;;5036260;28;20087;-65
2023/01/04 03:54:55;;;;;;;3.63;2.30;;;9.40;99.90;;;;;;5040476;28;20491;-66
2023/01/04 03:57:22;;;;;;;4.38;2.17;;;9.50;99.90;;;;;;5041141;28;20038;-65
2023/01/04 03:59:52;;;;;;;2.78;2.08;;;9.50;99.90;;;;;;5049897;28;20037;-65
2023/01/04 04:02:23;;;;;;;4.88;2.33;;;9.50;99.90;;;;;;5044884;28;20369;-65
2023/01/04 04:10:17;;;;;;;3.08;2.25;;;9.60;99.90;;;;;;5025696;28;20128;-65
2023/01/04 04:12:43;;;;;;;3.53;2.53;;;9.60;99.90;;;;;;5030381;28;20435;-66
2023/01/04 04:15:09;;;;;;;4.78;2.60;;;9.60;99.90;;;;;;5040393;28;20041;-68
2023/01/04 04:17:35;;;;;;;3.50;2.22;;;9.60;99.90;;;;;;5041736;28;20467;-67
2023/01/04 04:20:00;;;;;;;5.72;2.53;;;9.60;99.90;;;;;;5029597;28;20079;-65
2023/01/04 04:22:26;;;;;;;3.80;2.55;;;9.70;99.90;;;;;;5016366;28;20493;-65
2023/01/04 04:24:51;;;;;;;2.55;2.20;;;9.70;99.90;;;;;;5041343;28;20036;-65
2023/01/04 04:27:17;;;;;;;5.55;2.90;;;9.70;99.90;;;;;;5042324;28;20041;-66
2023/01/04 04:29:43;;;;;;;3.58;2.50;;;9.70;99.90;;;;;;5045995;28;20058;-64
2023/01/04 04:32:08;;;;;;;3.80;2.45;;;9.70;99.90;;;;;;5046262;28;20241;-65
2023/01/04 04:34:35;;;;;;;3.72;2.85;;;9.80;99.90;;;;;;5027517;28;20041;-65
2023/01/04 04:37:00;;;;;;;4.85;2.92;;;9.80;99.90;;;;;;5046751;28;20049;-64
2023/01/04 04:39:26;;;;;;;4.22;2.83;;;9.90;99.90;;;;;;5041956;28;20041;-65
2023/01/04 04:41:52;;;;;;;5.88;3.03;;;9.90;99.90;;;;;;5023374;28;20044;-65
2023/01/04 04:44:19;;;;;;;3.92;3.00;;;9.90;99.90;;;;;;5041612;28;20562;-68
2023/01/04 04:46:46;;;;;;;4.70;3.15;;;9.90;99.90;;;;;;5041117;28;20376;-67
2023/01/04 04:49:12;;;;;;;5.10;3.30;;;9.90;99.90;;;;;;5041052;28;20275;-66
2023/01/04 04:51:39;;;;;;;4.95;3.38;;;9.90;99.90;;;;;;5039876;28;20073;-66
2023/01/04 04:54:05;;;;;;;5.13;3.30;;;10.00;99.90;;;;;;5046579;28;20045;-65
2023/01/04 04:56:31;;;;;;;5.40;3.47;;;10.00;99.90;;;;;;5053100;28;20033;-65
2023/01/04 04:58:57;;;;;;;6.22;3.70;;;10.00;99.90;;;;;;5024754;28;20400;-65
2023/01/04 05:01:23;;;;;;;5.57;3.50;;;10.00;99.90;;;;;;5040756;28;20037;-65
2023/01/04 05:03:49;;;;;;;6.82;3.80;;;10.10;99.90;;;;;;5039718;28;20037;-65
2023/01/04 05:06:14;;;;;;;5.13;3.63;;;10.10;99.90;;;;;;5018334;28;20037;-65
2023/01/04 05:08:40;;;;;;;5.30;3.90;;;10.10;99.90;;;;;;5028390;28;20388;-67
2023/01/04 05:11:08;;;;;;;5.72;3.90;;;10.10;99.90;;;;;;5043711;28;20045;-65
2023/01/04 05:13:34;;;;;;;6.03;4.05;;;10.20;99.90;;;;;;5043363;28;20037;-65
2023/01/04 05:16:01;;;;;;;5.38;3.97;;;10.20;99.90;;;;;;5046749;28;20396;-65
2023/01/04 05:18:27;;;;;;;5.82;4.43;;;10.30;99.90;;;;;;5029416;28;20124;-66
2023/01/04 05:20:52;;;;;;;6.10;4.43;;;10.30;99.90;;;;;;5046939;28;20121;-65
2023/01/04 05:23:20;;;;;;;5.35;4.22;;;10.30;99.90;;;;;;5040578;28;20112;-65
2023/01/04 05:25:50;;;;;;;5.47;4.07;;;10.30;99.90;;;;;;5043890;28;20060;-65
2023/01/04 05:28:16;;;;;;;6.07;4.60;;;10.40;99.90;;;;;;5026680;28;20069;-65
2023/01/04 05:30:51;;;;;;;7.18;4.80;;;10.40;99.90;;;;;;5034413;28;20072;-64
2023/01/04 05:33:28;;;;;;;8.43;4.82;;;10.40;99.90;;;;;;5033461;28;20098;-64
2023/01/04 05:35:55;;;;;;;6.35;4.38;;;10.50;99.90;;;;;;5050755;28;20599;-64
2023/01/04 05:38:22;;;;;;;7.90;4.18;;;10.50;99.90;;;;;;5023079;28;20487;-65
2023/01/04 05:40:49;;;;;;;8.68;4.82;;;10.60;99.90;;;;;;5034123;28;20041;-64
2023/01/04 05:43:16;;;;;;;7.10;4.75;;;10.60;99.90;;;;;;5042675;28;20487;-64
2023/01/04 05:46:08;;;;;;;6.57;4.03;;;10.70;99.90;;;;;;5033532;28;20433;-66
2023/01/04 05:48:33;;;;;;;7.38;4.40;;;10.70;99.90;;;;;;5047491;28;20415;-66
2023/01/04 05:50:59;;;;;;;6.65;4.32;;;10.70;99.90;;;;;;5041929;28;20037;-65
2023/01/04 05:53:24;;;;;;;8.75;4.00;;;10.80;99.90;;;;;;5043162;28;20112;-65
2023/01/04 05:55:50;;;;;;;5.88;3.67;;;10.80;99.90;;;;;;5042603;28;20044;-65
2023/01/04 05:58:15;;;;;;;7.07;3.95;;;10.80;99.90;;;;;;5045581;28;20028;-66
2023/01/04 06:00:41;;;;;;;8.02;4.05;;;10.80;99.90;;;;;;5050792;28;20649;-65
2023/01/04 06:03:07;;;;;;;4.72;3.60;;;10.80;99.90;;;;;;5051521;28;20048;-65
2023/01/04 06:05:32;;;;;;;6.78;3.42;;;10.80;99.90;;;;;;5027591;28;20493;-65
2023/01/04 06:07:58;;;;;;;5.35;3.47;;;10.80;99.90;;;;;;5052185;28;20033;-66
2023/01/04 06:10:23;;;;;;;5.40;3.20;;;10.80;99.90;;;;;;5041006;28;20036;-65
2023/01/04 06:12:49;;;;;;;7.00;3.58;;;10.80;99.90;;;;;;5042347;28;20731;-65
2023/01/04 06:15:15;;;;;;;6.03;3.50;;;10.80;99.90;;;;;;5040170;28;20124;-65
2023/01/04 06:17:41;;;;;;;5.35;3.03;;;10.90;99.90;;;;;;5051773;28;20123;-65
2023/01/04 06:20:08;;;;;;;6.90;3.00;;;10.90;99.90;;;;;;5040982;28;20514;-65
2023/01/04 06:22:34;;;;;;;5.05;3.30;;;10.90;99.90;;;;;;5048332;28;20124;-65
2023/01/04 06:25:00;;;;;;;5.10;2.83;;;10.90;99.90;;;;;;5029878;28;20132;-64
2023/01/04 06:27:25;;;;;;;6.55;3.25;;;10.90;99.90;;;;;;5046170;28;20036;-65
2023/01/04 06:29:51;;;;;;;4.38;2.92;;;10.90;99.90;;;;;;5048801;28;20042;-65
2023/01/04 06:32:17;;;;;;;6.28;2.90;;;10.90;99.90;;;;;;5043096;28;20038;-65
2023/01/04 06:34:43;;;;;;;6.25;3.00;;;10.90;99.90;;;;;;5040194;28;20128;-65
2023/01/04 06:37:09;;;;;;;7.13;3.08;;;10.90;99.90;;;;;;5050131;28;20047;-65
2023/01/04 06:39:36;;;;;;;4.93;2.88;;;10.90;99.90;;;;;;5051673;28;20112;-68
2023/01/04 06:42:02;;;;;;;4.72;3.10;;;10.90;99.90;;;;;;5042945;28;20091;-65
2023/01/04 06:44:27;;;;;;;4.88;2.80;;;10.90;99.90;;;;;;5035520;28;20041;-65
2023/01/04 06:46:53;;;;;;;3.85;2.65;;;10.90;99.90;;;;;;5027375;28;20151;-67
2023/01/04 06:49:18;;;;;;;4.30;2.45;;;10.90;99.90;;;;;;5039576;28;20102;-64
2023/01/04 06:51:44;;;;;;;5.00;2.60;;;10.90;99.90;;;;;;5047844;28;20105;-66
2023/01/04 06:54:13;;;;;;;5.72;2.30;;;10.90;99.90;;;;;;5042586;28;20070;-66
2023/01/04 06:56:39;;;;;;;5.32;2.30;;;10.90;99.90;;;;;;5042413;28;20044;-66
2023/01/04 06:59:06;;;;;;;2.85;2.10;;;10.90;99.90;;;;;;5031192;28;20102;-66
2023/01/04 07:01:32;;;;;;;3.20;2.00;;;10.90;99.90;;;;;;5048186;28;20071;-66
2023/01/04 07:03:57;;;;;;;4.05;2.47;;;10.90;99.90;;;;;;5041455;28;20079;-66
2023/01/04 07:06:23;;;;;;;2.47;1.77;;;10.90;99.90;;;;;;5049455;28;20029;-66
2023/01/04 07:08:49;;;;;;;2.65;2.00;;;10.90;99.90;;;;;;5024582;28;20041;-66
2023/01/04 07:11:14;;;;;;;2.75;2.10;;;11.00;99.90;;;;;;5049972;28;20487;-66
2023/01/04 07:13:40;;;;;;;2.35;1.92;;;11.00;99.90;;;;;;5050670;28;20037;-66
2023/01/04 07:16:06;;;;;;;3.15;1.92;;;11.00;99.90;;;;;;5040848;28;20082;-66
2023/01/04 07:18:31;;;;;;;3.80;2.33;;;11.00;99.90;;;;;;5021696;28;20056;-66
2023/01/04 07:20:57;;;;;;;3.65;2.10;;;11.00;99.90;;;;;;5026610;28;20040;-66
2023/01/04 07:23:23;;;;;;;2.45;1.92;;;11.00;99.90;;;;;;5030957;28;20521;-66
2023/01/04 07:25:48;;;;;;;3.72;2.40;;;11.10;99.90;;;;;;5022184;28;20398;-66
2023/01/04 07:29:13;;;;;;;3.28;2.33;;;11.00;99.90;;;;;;5050270;28;20112;-65
2023/01/04 07:31:05;;;;;;;2.53;1.90;;;11.00;99.90;;;;;;5016632;28;20496;-65
2023/01/04 07:33:30;;;;;;;3.58;2.30;;;11.00;99.90;;;;;;5028606;28;20040;-66
2023/01/04 07:36:01;;;;;;;3.53;2.45;;;11.00;99.90;;;;;;5040073;28;20033;-65
2023/01/04 07:38:26;;;;;;;3.40;2.50;;;11.10;99.90;;;;;;5043638;28;20044;-66
2023/01/04 07:40:53;;;;;;;3.33;2.33;;;11.10;99.90;;;;;;5023184;28;20037;-66
2023/01/04 07:43:18;;;;;;;5.15;2.75;;;11.10;99.90;;;;;;5036936;28;20033;-65
2023/01/04 07:45:45;;;;;;;4.63;2.78;;;11.10;99.90;;;;;;5048910;28;20064;-65
2023/01/04 07:48:10;;;;;;;5.00;3.00;;;11.10;99.90;;;;;;5024473;28;20044;-66
2023/01/04 07:50:36;;;;;;;5.40;2.92;;;11.10;99.90;;;;;;5037602;28;20399;-65
2023/01/04 07:53:01;;;;;;;6.53;2.80;;;11.10;99.90;;;;;;5039397;28;20044;-66
2023/01/04 07:55:27;;;;;;;5.57;3.08;;;11.10;99.90;;;;;;5048981;28;20033;-66
2023/01/04 07:57:53;;;;;;;5.97;3.17;;;11.10;99.90;;;;;;5044538;28;20052;-66
2023/01/04 08:00:19;;;;;;;6.15;3.50;;;11.10;99.90;;;;;;5035503;28;20037;-66
2023/01/04 08:02:47;;;;;;;5.97;3.30;;;11.10;99.90;;;;;;5049710;28;20033;-66
2023/01/04 08:05:12;;;;;;;6.00;2.92;;;11.20;99.90;;;;;;5029692;28;20044;-66
2023/01/04 08:07:38;;;;;;;4.82;3.03;;;11.20;99.90;;;;;;5030218;28;20033;-66
2023/01/04 08:10:04;;;;;;;4.53;2.78;;;11.10;99.90;;;;;;5047983;28;20176;-66
2023/01/04 08:12:30;;;;;;;5.15;2.92;;;11.20;99.90;;;;;;5043960;28;20033;-66
2023/01/04 08:14:55;;;;;;;4.53;3.17;;;11.20;99.90;;;;;;5030423;28;20430;-64
2023/01/04 08:17:21;;;;;;;6.07;3.00;;;11.20;99.90;;;;;;5044793;28;20099;-66
2023/01/04 08:19:46;;;;;;;8.27;3.40;;;11.20;99.90;;;;;;5042611;28;20036;-65
2023/01/04 08:22:13;;;;;;;5.22;2.85;;;11.30;99.90;;;;;;5047947;28;20033;-66
2023/01/04 08:24:38;;;;;;;5.30;3.38;;;11.30;99.90;;;;;;5027508;28;20033;-66
2023/01/04 08:27:05;;;;;;;4.15;2.63;;;11.30;99.90;;;;;;5047239;28;20038;-66
2023/01/04 08:29:31;;;;;;;5.03;2.85;;;11.30;99.90;;;;;;5052724;28;20120;-66
2023/01/04 08:31:56;;;;;;;4.05;2.65;;;11.30;99.90;;;;;;5035875;28;20551;-66
2023/01/04 08:34:22;;;;;;;3.67;2.60;;;11.30;99.90;;;;;;5054073;28;20037;-66
2023/01/04 08:36:49;;;;;;;4.63;2.88;;;11.30;99.90;;;;;;5046214;28;20114;-66
2023/01/04 08:39:15;;;;;;;6.75;3.00;;;11.30;99.90;;;;;;5026647;28;20051;-66
2023/01/04 08:41:51;;;;;;;5.93;3.53;;;11.30;99.90;;;;;;5054136;28;20064;-66
2023/01/04 08:44:19;;;;;;;6.85;3.15;;;11.30;99.90;;;;;;5027818;28;20037;-66
2023/01/04 08:46:45;;;;;;;4.70;2.40;;;11.40;99.90;;;;;;5051048;28;20033;-65
2023/01/04 08:49:10;;;;;;;5.03;2.47;;;11.30;99.90;;;;;;5036348;28;20040;-65
2023/01/04 08:51:36;;;;;;;3.97;2.10;;;11.40;99.90;;;;;;5036398;28;20055;-66
2023/01/04 08:54:02;;;;;;;4.00;2.50;;;11.30;99.90;;;;;;5028608;28;20114;-65
2023/01/04 08:56:27;;;;;;;4.20;2.22;;;11.30;99.90;;;;;;5051526;28;20064;-66
2023/01/04 08:58:53;;;;;;;4.97;2.55;;;11.40;99.90;;;;;;5049898;28;20046;-66
2023/01/04 09:01:18;;;;;;;3.28;2.00;;;11.30;99.90;;;;;;5045516;28;20044;-66
2023/01/04 09:03:44;;;;;;;3.08;2.08;;;11.30;99.90;;;;;;5053427;28;20491;-66
2023/01/04 09:06:14;;;;;;;3.60;2.03;;;11.30;99.90;;;;;;5033616;28;20116;-65
2023/01/04 09:08:41;;;;;;;3.53;1.90;;;11.40;99.90;;;;;;5051799;28;20078;-66
2023/01/04 09:11:12;;;;;;;4.15;2.00;;;11.30;99.90;;;;;;5044348;28;20033;-65
2023/01/04 09:13:38;;;;;;;3.92;1.65;;;11.30;99.90;;;;;;5029224;28;20041;-66
2023/01/04 09:16:07;;;;;;;4.57;1.63;;;11.40;99.90;;;;;;5046462;28;20133;-66
2023/01/04 09:18:33;;;;;;;2.55;1.40;;;11.40;99.90;;;;;;5027193;28;20108;-65
2023/01/04 09:21:04;;;;;;;2.63;1.42;;;11.50;99.90;;;;;;5033615;28;20190;-66
2023/01/04 09:23:30;;;;;;;2.25;1.40;;;11.50;99.90;;;;;;5023961;28;20116;-66
2023/01/04 09:25:55;;;;;;;3.63;1.40;;;11.40;99.90;;;;;;5025207;28;20136;-66
2023/01/04 09:28:21;;;;;;;1.30;1.20;;;11.40;99.90;;;;;;5027543;28;20372;-66
2023/01/04 09:30:46;;;;;;;1.30;1.20;;;11.40;99.90;;;;;;5026844;28;20041;-65
2023/01/04 09:33:12;;;;;;;2.38;1.38;;;11.50;99.90;;;;;;5051836;28;20036;-66
2023/01/04 09:35:38;;;;;;;2.67;1.30;;;11.50;99.90;;;;;;5038833;28;20045;-66
2023/01/04 09:38:03;;;;;;;2.60;1.33;;;11.40;99.90;;;;;;5038931;28;20376;-66
2023/01/04 09:40:50;;;;;;;2.13;1.20;;;11.40;99.90;;;;;;5041681;28;20038;-66
2023/01/04 09:43:21;;;;;;;1.30;1.20;;;11.40;99.90;;;;;;5040244;28;20068;-66
2023/01/04 09:45:51;;;;;;;4.53;1.38;;;11.40;99.90;;;;;;5048007;28;20441;-65
2023/01/04 09:48:20;;;;;;;1.27;1.17;;;11.50;99.90;;;;;;5038472;28;20446;-65
2023/01/04 09:51:12;;;;;;;1.52;1.10;;;11.50;99.90;;;;;;5044188;28;20833;-65
2023/01/04 09:53:47;;;;;;;1.67;1.10;;;11.50;99.90;;;;;;5033641;28;20103;-66
2023/01/04 09:56:30;;;;;;;2.38;1.33;;;11.50;99.90;;;;;;5034820;28;20045;-66
2023/01/04 09:58:58;;;;;;;2.05;1.30;;;11.50;99.90;;;;;;5052550;28;20059;-66
2023/01/04 10:01:40;;;;;;;1.40;1.25;;;11.40;99.90;;;;;;5026148;28;20486;-65
2023/01/04 10:04:27;;;;;;;2.57;1.20;;;11.50;99.90;;;;;;5052273;28;20033;-66
2023/01/04 10:06:53;;;;;;;1.52;1.17;;;11.50;99.90;;;;;;5046079;28;20271;-65
2023/01/04 10:09:19;;;;;;;1.33;1.20;;;11.50;99.90;;;;;;5044774;28;20505;-65
2023/01/04 10:12:27;;;;;;;1.38;1.27;;;11.50;99.90;;;;;;5047671;28;20495;-66
2023/01/04 10:15:11;;;;;;;1.95;1.30;;;11.50;99.90;;;;;;5030876;28;20057;-66
2023/01/04 10:17:45;;;;;;;2.28;1.30;;;11.50;99.90;;;;;;5029174;28;20128;-65
2023/01/04 10:20:41;;;;;;;2.60;1.40;;;11.50;99.90;;;;;;5047160;28;20036;-66
2023/01/04 10:23:17;;;;;;;1.75;1.30;;;11.50;99.90;;;;;;5023062;28;20037;-65
2023/01/04 10:26:05;;;;;;;2.78;1.70;;;11.50;99.90;;;;;;5032012;28;20067;-66
2023/01/04 10:28:46;;;;;;;3.10;1.75;;;11.50;99.90;;;;;;5031283;28;20518;-65
2023/01/04 10:31:19;;;;;;;2.67;1.80;;;11.50;99.90;;;;;;5040199;28;20036;-66
2023/01/04 10:33:48;;;;;;;2.85;2.00;;;11.50;99.90;;;;;;5045226;28;20087;-66
2023/01/04 10:36:20;;;;;;;5.40;1.85;;;11.50;99.90;;;;;;5051923;28;20124;-66
2023/01/04 10:39:05;;;;;;;5.05;2.17;;;11.50;99.90;;;;;;5025972;28;20064;-65
2023/01/04 10:41:52;;;;;;;4.90;2.10;;;11.50;99.90;;;;;;5038538;28;20029;-65
2023/01/04 10:44:30;;;;;;;5.05;2.40;;;11.50;99.90;;;;;;5021978;28;20095;-65
2023/01/04 10:47:05;;;;;;;3.53;2.42;;;11.60;99.90;;;;;;5029920;28;20376;-66
2023/01/04 10:49:39;;;;;;;4.97;2.40;;;11.60;99.90;;;;;;5033148;28;20048;-65
2023/01/04 10:52:30;;;;;;;8.70;2.30;;;11.60;99.90;;;;;;5025826;28;20510;-66
2023/01/04 10:55:09;;;;;;;5.13;2.13;;;11.70;99.90;;;;;;5032478;28;20049;-66
2023/01/04 10:57:37;;;;;;;5.95;2.17;;;11.70;99.90;;;;;;5040913;28;20084;-66
2023/01/04 11:00:14;;;;;;;10.50;2.63;;;11.90;99.90;;;;;;5028169;28;20045;-65
2023/01/04 11:02:42;;;;;;;8.45;2.88;;;11.90;99.90;;;;;;5046553;28;20291;-65
2023/01/04 11:05:16;;;;;;;6.03;2.30;;;11.80;99.90;;;;;;5042748;28;20437;-65
2023/01/04 11:07:51;;;;;;;8.52;2.47;;;11.80;99.90;;;;;;5051534;28;20033;-65
2023/01/04 11:10:39;;;;;;;9.15;2.80;;;11.90;99.90;;;;;;5005480;28;20045;-65
2023/01/04 11:13:05;;;;;;;11.40;3.20;;;11.90;99.90;;;;;;5023807;28;20056;-65
2023/01/04 11:15:31;;;;;;;10.80;2.95;;;12.00;99.90;;;;;;5039296;28;20033;-65
2023/01/04 11:18:01;;;;;;;10.98;3.05;;;12.00;99.90;;;;;;5032647;28;20407;-65
2023/01/04 11:20:28;;;;;;;7.70;2.65;;;12.10;99.90;;;;;;5042563;28;20041;-64
2023/01/04 11:23:06;;;;;;;13.48;2.92;;;12.00;99.90;;;;;;5033192;28;20047;-65
2023/01/04 11:25:40;;;;;;;13.75;3.30;;;12.10;99.90;;;;;;5042286;28;20476;-65
2023/01/04 11:28:12;;;;;;;16.88;3.28;;;12.10;99.90;;;;;;5046837;28;20381;-65
2023/01/04 11:30:53;;;;;;;13.13;2.78;;;12.10;99.90;;;;;;5032404;28;20041;-65
2023/01/04 11:33:21;;;;;;;12.48;3.60;;;12.20;99.90;;;;;;5026681;28;20488;-65
2023/01/04 11:35:48;;;;;;;11.20;3.03;;;12.20;99.90;;;;;;5041762;28;20078;-65
2023/01/04 11:38:17;;;;;;;12.45;2.65;;;12.20;99.90;;;;;;5018894;28;20041;-65
2023/01/04 11:41:05;;;;;;;11.02;2.92;;;12.20;99.90;;;;;;5022802;28;20565;-65
2023/01/04 11:43:36;;;;;;;13.18;3.53;;;12.30;99.90;;;;;;5046793;28;20036;-65
2023/01/04 11:46:17;;;;;;;9.43;3.00;;;12.20;99.90;;;;;;5027418;28;20037;-65
2023/01/04 11:48:45;;;;;;;12.10;3.22;;;12.30;99.90;;;;;;5046078;28;20037;-65
2023/01/04 11:51:28;;;;;;;14.18;2.97;;;12.30;99.90;;;;;;5047451;28;20040;-65
2023/01/04 11:54:01;;;;;;;11.68;3.13;;;12.30;99.90;;;;;;5049899;28;20037;-65
2023/01/04 11:56:28;;;;;;;17.52;3.03;;;12.30;99.90;;;;;;5028043;28;20499;-65
2023/01/04 11:59:14;;;;;;;10.30;2.90;;;12.40;99.90;;;;;;5046369;28;20033;-65
2023/01/04 12:01:45;;;;;;;12.93;3.10;;;12.40;99.90;;;;;;5019663;28;20369;-65
2023/01/04 12:04:26;;;;;;;12.52;3.00;;;12.40;99.90;;;;;;5043888;28;20030;-65
2023/01/04 12:07:05;;;;;;;7.22;2.67;;;12.40;99.90;;;;;;5022521;28;20048;-65
2023/01/04 12:09:31;;;;;;;9.23;1.83;;;12.40;99.90;;;;;;5041231;28;20127;-65
2023/01/04 12:11:59;;;;;;;6.30;1.58;;;12.40;99.90;;;;;;5025086;28;20083;-65
2023/01/04 12:14:27;;;;;;;4.97;1.50;;;12.40;99.90;;;;;;5024539;28;20047;-65
2023/01/04 12:17:08;;;;;;;5.00;1.60;;;12.30;99.90;;;;;;5038666;28;20479;-65
2023/01/04 12:19:35;;;;;;;4.40;1.58;;;12.30;99.90;;;;;;5023278;28;20040;-65
2023/01/04 12:22:02;;;;;;;4.57;1.50;;;12.30;99.90;;;;;;5046900;28;20076;-65
2023/01/04 12:24:32;;;;;;;3.90;1.45;;;12.30;99.90;;;;;;5043457;28;20047;-65
2023/01/04 12:27:00;;;;;;;4.78;1.63;;;12.30;99.90;;;;;;5023365;28;20095;-65
2023/01/04 12:29:56;;;;;;;3.65;1.67;;;12.30;99.90;;;;;;5021919;28;20124;-65
2023/01/04 12:32:21;;;;;;;4.90;1.52;;;12.30;99.90;;;;;;5029065;28;20041;-64
2023/01/04 12:34:47;;;;;;;7.53;1.70;;;12.30;99.90;;;;;;5045533;28;20044;-65
2023/01/04 12:37:32;;;;;;;5.85;1.42;;;12.30;99.90;;;;;;5041846;28;20033;-65
2023/01/04 12:39:57;;;;;;;4.90;1.40;;;12.20;99.90;;;;;;5019584;28;20049;-64
2023/01/04 12:42:25;;;;;;;3.50;1.30;;;12.20;99.90;;;;;;5042593;28;20036;-65
2023/01/04 12:44:51;;;;;;;5.45;1.95;;;12.20;99.90;;;;;;5045569;28;20036;-64
2023/01/04 12:50:02;;;;;;;5.85;1.50;;;12.20;99.90;;;;;;5028318;28;20053;-65
2023/01/04 12:52:28;;;;;;;7.80;2.33;;;12.20;99.90;;;;;;5049674;28;20032;-65
2023/01/04 12:54:59;;;;;;;7.70;2.58;;;12.20;99.90;;;;;;5026408;28;20082;-64
2023/01/04 12:57:38;;;;;;;8.70;1.80;;;12.20;99.90;;;;;;5041870;28;20047;-64
2023/01/04 13:00:08;;;;;;;8.90;2.42;;;12.30;99.90;;;;;;5041789;28;20029;-64
2023/01/04 13:02:35;;;;;;;11.05;2.00;;;12.20;99.90;;;;;;5042805;28;20112;-64
2023/01/04 13:05:17;;;;;;;12.38;2.47;;;12.30;99.90;;;;;;5047697;28;20041;-64
2023/01/04 13:07:47;;;;;;;12.65;2.10;;;12.20;99.90;;;;;;5043868;28;20083;-64
2023/01/04 13:10:40;;;;;;;10.65;2.35;;;12.20;99.90;;;;;;5038003;28;20044;-65
2023/01/04 13:13:18;;;;;;;13.50;2.65;;;12.20;99.90;;;;;;5049659;28;20364;-64
2023/01/04 13:16:04;;;;;;;9.88;2.70;;;12.30;99.90;;;;;;5039947;28;20033;-64
2023/01/04 13:18:41;;;;;;;16.20;2.40;;;12.30;99.90;;;;;;5017972;28;20407;-64
2023/01/04 13:21:33;;;;;;;9.63;2.25;;;12.30;99.90;;;;;;5031711;28;20491;-64
2023/01/04 13:24:29;;;;;;;10.82;2.38;;;12.30;99.90;;;;;;5048595;28;20040;-65
2023/01/04 13:26:56;;;;;;;15.13;3.03;;;12.40;99.90;;;;;;5034284;28;20037;-64
2023/01/04 13:29:25;;;;;;;10.55;2.75;;;12.40;99.90;;;;;;5051811;28;20051;-65
2023/01/04 13:31:59;;;;;;;12.25;2.67;;;12.40;99.90;;;;;;5025132;28;20369;-64
2023/01/04 13:34:36;;;;;;;12.80;2.42;;;12.40;99.90;;;;;;5044367;28;20043;-65
2023/01/04 13:37:10;;;;;;;15.40;2.63;;;12.40;99.90;;;;;;5002210;28;20049;-65
2023/01/04 13:39:45;;;;;;;19.27;2.60;;;12.40;99.90;;;;;;5049821;28;20037;-64
2023/01/04 13:42:28;;;;;;;17.05;3.22;;;12.40;99.90;;;;;;5047386;28;20034;-64
2023/01/04 13:45:20;;;;;;;13.10;2.45;;;12.50;99.90;;;;;;5044965;28;20042;-65
2023/01/04 13:47:50;;;;;;;10.05;2.58;;;12.40;99.90;;;;;;5049449;28;20069;-64